sensor_id;sensor_type;location;lat;lon;timestamp;P1;durP1;ratioP1;P2;durP2;ratioP2
20067;SDS011;10194;50.824;7.134;2023-09-30T00:02:12;60.50;;;50.90;;
20067;SDS011;10194;50.824;7.134;2023-09-30T00:04:38;60.97;;;51.13;;
20067;SDS011;10194;50.824;7.134;2023-09-30T00:07:04;60.67;;;51.00;;
20067;SDS011;10194;50.824;7.134;2023-09-30T00:09:30;60.10;;;50.53;;
20067;SDS011;10194;50.824;7.134;2023-09-30T00:11:56;63.63;;;52.10;;
20067;SDS011;10194;50.824;7.134;2023-09-30T00:14:22;64.67;;;52.30;;
20067;SDS011;10194;50.824;7.134;2023-09-30T00:16:48;66.60;;;53.07;;
20067;SDS011;10194;50.824;7.134;2023-09-30T00:19:15;65.40;;;52.57;;
20067;SDS011;10194;50.824;7.134;2023-09-30T00:21:42;66.07;;;52.90;;
20067;SDS011;10194;50.824;7.134;2023-09-30T00:24:07;61.97;;;51.17;;
20067;SDS011;10194;50.824;7.134;2023-09-30T00:26:34;59.23;;;50.03;;
20067;SDS011;10194;50.824;7.134;2023-09-30T00:29:00;62.93;;;51.47;;
20067;SDS011;10194;50.824;7.134;2023-09-30T00:31:29;59.33;;;50.20;;
20067;SDS011;10194;50.824;7.134;2023-09-30T00:33:55;60.17;;;50.60;;
20067;SDS011;10194;50.824;7.134;2023-09-30T00:36:22;63.40;;;51.70;;
20067;SDS011;10194;50.824;7.134;2023-09-30T00:38:47;60.23;;;50.73;;
20067;SDS011;10194;50.824;7.134;2023-09-30T00:41:13;60.27;;;50.77;;
20067;SDS011;10194;50.824;7.134;2023-09-30T00:43:39;60.37;;;50.80;;
20067;SDS011;10194;50.824;7.134;2023-09-30T00:46:13;60.17;;;50.57;;
20067;SDS011;10194;50.824;7.134;2023-09-30T00:48:46;63.80;;;51.90;;
20067;SDS011;10194;50.824;7.134;2023-09-30T00:51:12;60.10;;;50.67;;
20067;SDS011;10194;50.824;7.134;2023-09-30T00:53:38;60.07;;;50.57;;
20067;SDS011;10194;50.824;7.134;2023-09-30T00:56:03;60.10;;;50.50;;
20067;SDS011;10194;50.824;7.134;2023-09-30T00:58:30;60.13;;;50.60;;
20067;SDS011;10194;50.824;7.134;2023-09-30T01:00:58;60.10;;;50.57;;
20067;SDS011;10194;50.824;7.134;2023-09-30T01:03:25;59.90;;;50.50;;
20067;SDS011;10194;50.824;7.134;2023-09-30T01:05:50;63.90;;;52.07;;
20067;SDS011;10194;50.824;7.134;2023-09-30T01:08:17;64.23;;;52.60;;
20067;SDS011;10194;50.824;7.134;2023-09-30T01:10:43;59.17;;;50.20;;
20067;SDS011;10194;50.824;7.134;2023-09-30T01:13:09;60.20;;;50.70;;
20067;SDS011;10194;50.824;7.134;2023-09-30T01:15:34;60.00;;;50.63;;
20067;SDS011;10194;50.824;7.134;2023-09-30T01:18:02;61.97;;;51.30;;
20067;SDS011;10194;50.824;7.134;2023-09-30T01:20:29;59.93;;;50.43;;
20067;SDS011;10194;50.824;7.134;2023-09-30T01:22:56;65.03;;;52.30;;
20067;SDS011;10194;50.824;7.134;2023-09-30T01:25:23;59.80;;;50.43;;
20067;SDS011;10194;50.824;7.134;2023-09-30T01:27:49;62.37;;;51.20;;
20067;SDS011;10194;50.824;7.134;2023-09-30T01:30:19;60.07;;;50.57;;
20067;SDS011;10194;50.824;7.134;2023-09-30T01:32:44;59.87;;;50.43;;
20067;SDS011;10194;50.824;7.134;2023-09-30T01:35:10;59.50;;;50.23;;
20067;SDS011;10194;50.824;7.134;2023-09-30T01:37:36;60.00;;;50.53;;
20067;SDS011;10194;50.824;7.134;2023-09-30T01:40:02;60.07;;;50.60;;
20067;SDS011;10194;50.824;7.134;2023-09-30T01:42:29;61.00;;;50.87;;
20067;SDS011;10194;50.824;7.134;2023-09-30T01:44:55;59.70;;;50.30;;
20067;SDS011;10194;50.824;7.134;2023-09-30T01:47:22;60.60;;;50.93;;
20067;SDS011;10194;50.824;7.134;2023-09-30T01:49:47;60.40;;;50.87;;
20067;SDS011;10194;50.824;7.134;2023-09-30T01:52:13;65.47;;;53.00;;
20067;SDS011;10194;50.824;7.134;2023-09-30T01:54:39;59.17;;;50.13;;
20067;SDS011;10194;50.824;7.134;2023-09-30T01:57:05;59.73;;;50.50;;
20067;SDS011;10194;50.824;7.134;2023-09-30T01:59:31;61.70;;;51.23;;
20067;SDS011;10194;50.824;7.134;2023-09-30T02:01:57;60.60;;;50.83;;
20067;SDS011;10194;50.824;7.134;2023-09-30T02:04:22;64.90;;;52.43;;
20067;SDS011;10194;50.824;7.134;2023-09-30T02:06:48;62.90;;;51.93;;
20067;SDS011;10194;50.824;7.134;2023-09-30T02:09:14;59.53;;;50.20;;
20067;SDS011;10194;50.824;7.134;2023-09-30T02:11:39;59.43;;;50.20;;
20067;SDS011;10194;50.824;7.134;2023-09-30T02:14:06;59.43;;;50.23;;
20067;SDS011;10194;50.824;7.134;2023-09-30T02:16:32;59.47;;;50.23;;
20067;SDS011;10194;50.824;7.134;2023-09-30T02:18:58;62.87;;;51.67;;
20067;SDS011;10194;50.824;7.134;2023-09-30T02:21:24;59.80;;;50.53;;
20067;SDS011;10194;50.824;7.134;2023-09-30T02:23:50;63.97;;;52.30;;
20067;SDS011;10194;50.824;7.134;2023-09-30T02:26:20;59.37;;;50.27;;
20067;SDS011;10194;50.824;7.134;2023-09-30T02:28:46;60.27;;;50.70;;
20067;SDS011;10194;50.824;7.134;2023-09-30T02:31:12;59.60;;;50.37;;
20067;SDS011;10194;50.824;7.134;2023-09-30T02:33:38;60.77;;;51.10;;
20067;SDS011;10194;50.824;7.134;2023-09-30T02:36:07;60.07;;;50.63;;
20067;SDS011;10194;50.824;7.134;2023-09-30T02:38:34;62.27;;;51.60;;
20067;SDS011;10194;50.824;7.134;2023-09-30T02:41:02;60.13;;;50.67;;
20067;SDS011;10194;50.824;7.134;2023-09-30T02:43:29;60.30;;;50.80;;
20067;SDS011;10194;50.824;7.134;2023-09-30T02:45:54;59.70;;;50.40;;
20067;SDS011;10194;50.824;7.134;2023-09-30T02:48:20;62.07;;;51.73;;
20067;SDS011;10194;50.824;7.134;2023-09-30T02:50:46;59.63;;;50.27;;
20067;SDS011;10194;50.824;7.134;2023-09-30T02:53:12;59.67;;;50.40;;
20067;SDS011;10194;50.824;7.134;2023-09-30T02:55:38;61.57;;;51.00;;
20067;SDS011;10194;50.824;7.134;2023-09-30T02:58:07;62.07;;;51.47;;
20067;SDS011;10194;50.824;7.134;2023-09-30T03:00:36;60.13;;;50.53;;
20067;SDS011;10194;50.824;7.134;2023-09-30T03:03:03;59.70;;;50.27;;
20067;SDS011;10194;50.824;7.134;2023-09-30T03:05:29;59.27;;;50.07;;
20067;SDS011;10194;50.824;7.134;2023-09-30T03:07:58;60.03;;;50.53;;
20067;SDS011;10194;50.824;7.134;2023-09-30T03:10:26;59.63;;;50.27;;
20067;SDS011;10194;50.824;7.134;2023-09-30T03:12:52;59.10;;;50.07;;
20067;SDS011;10194;50.824;7.134;2023-09-30T03:15:19;59.87;;;50.43;;
20067;SDS011;10194;50.824;7.134;2023-09-30T03:17:45;59.33;;;50.17;;
20067;SDS011;10194;50.824;7.134;2023-09-30T03:20:11;59.50;;;50.27;;
20067;SDS011;10194;50.824;7.134;2023-09-30T03:22:39;59.87;;;50.43;;
20067;SDS011;10194;50.824;7.134;2023-09-30T03:25:06;60.20;;;50.57;;
20067;SDS011;10194;50.824;7.134;2023-09-30T03:27:34;59.00;;;49.93;;
20067;SDS011;10194;50.824;7.134;2023-09-30T03:30:01;62.70;;;51.23;;
20067;SDS011;10194;50.824;7.134;2023-09-30T03:32:30;59.70;;;50.30;;
20067;SDS011;10194;50.824;7.134;2023-09-30T03:34:58;59.37;;;50.20;;
20067;SDS011;10194;50.824;7.134;2023-09-30T03:37:27;63.57;;;51.60;;
20067;SDS011;10194;50.824;7.134;2023-09-30T03:39:54;59.23;;;50.07;;
20067;SDS011;10194;50.824;7.134;2023-09-30T03:42:20;58.97;;;49.83;;
20067;SDS011;10194;50.824;7.134;2023-09-30T03:44:46;58.63;;;49.63;;
20067;SDS011;10194;50.824;7.134;2023-09-30T03:47:13;59.10;;;49.90;;
20067;SDS011;10194;50.824;7.134;2023-09-30T03:49:38;59.57;;;50.27;;
20067;SDS011;10194;50.824;7.134;2023-09-30T03:52:04;59.10;;;49.77;;
20067;SDS011;10194;50.824;7.134;2023-09-30T03:54:31;58.47;;;49.40;;
20067;SDS011;10194;50.824;7.134;2023-09-30T03:56:57;58.87;;;49.80;;
20067;SDS011;10194;50.824;7.134;2023-09-30T03:59:24;59.13;;;49.73;;
20067;SDS011;10194;50.824;7.134;2023-09-30T04:01:51;59.20;;;49.97;;
20067;SDS011;10194;50.824;7.134;2023-09-30T04:04:18;59.17;;;49.67;;
20067;SDS011;10194;50.824;7.134;2023-09-30T04:06:46;59.23;;;49.87;;
20067;SDS011;10194;50.824;7.134;2023-09-30T04:09:13;59.10;;;49.87;;
20067;SDS011;10194;50.824;7.134;2023-09-30T04:11:39;58.73;;;49.63;;
20067;SDS011;10194;50.824;7.134;2023-09-30T04:14:07;59.47;;;50.07;;
20067;SDS011;10194;50.824;7.134;2023-09-30T04:16:33;58.57;;;49.50;;
20067;SDS011;10194;50.824;7.134;2023-09-30T04:19:00;62.37;;;50.80;;
20067;SDS011;10194;50.824;7.134;2023-09-30T04:21:26;58.93;;;49.70;;
20067;SDS011;10194;50.824;7.134;2023-09-30T04:23:54;61.47;;;51.00;;
20067;SDS011;10194;50.824;7.134;2023-09-30T04:26:21;59.10;;;49.83;;
20067;SDS011;10194;50.824;7.134;2023-09-30T04:28:47;58.63;;;49.57;;
20067;SDS011;10194;50.824;7.134;2023-09-30T04:31:14;58.63;;;49.50;;
20067;SDS011;10194;50.824;7.134;2023-09-30T04:33:40;58.97;;;49.77;;
20067;SDS011;10194;50.824;7.134;2023-09-30T04:36:06;58.40;;;49.40;;
20067;SDS011;10194;50.824;7.134;2023-09-30T04:38:34;58.97;;;49.80;;
20067;SDS011;10194;50.824;7.134;2023-09-30T04:41:02;58.80;;;49.63;;
20067;SDS011;10194;50.824;7.134;2023-09-30T04:43:28;58.10;;;49.07;;
20067;SDS011;10194;50.824;7.134;2023-09-30T04:45:54;58.47;;;49.30;;
20067;SDS011;10194;50.824;7.134;2023-09-30T04:48:22;61.67;;;51.13;;
20067;SDS011;10194;50.824;7.134;2023-09-30T04:50:48;59.00;;;49.70;;
20067;SDS011;10194;50.824;7.134;2023-09-30T04:53:16;58.50;;;49.37;;
20067;SDS011;10194;50.824;7.134;2023-09-30T04:55:44;59.60;;;50.00;;
20067;SDS011;10194;50.824;7.134;2023-09-30T04:58:10;66.37;;;52.70;;
20067;SDS011;10194;50.824;7.134;2023-09-30T05:00:37;58.30;;;49.20;;
20067;SDS011;10194;50.824;7.134;2023-09-30T05:03:04;58.30;;;49.43;;
20067;SDS011;10194;50.824;7.134;2023-09-30T05:05:30;58.10;;;49.23;;
20067;SDS011;10194;50.824;7.134;2023-09-30T05:07:56;58.37;;;49.27;;
20067;SDS011;10194;50.824;7.134;2023-09-30T05:10:23;58.47;;;49.37;;
20067;SDS011;10194;50.824;7.134;2023-09-30T05:12:50;60.13;;;50.30;;
20067;SDS011;10194;50.824;7.134;2023-09-30T05:15:19;61.77;;;50.60;;
20067;SDS011;10194;50.824;7.134;2023-09-30T05:17:46;57.93;;;49.03;;
20067;SDS011;10194;50.824;7.134;2023-09-30T05:20:13;57.83;;;49.03;;
20067;SDS011;10194;50.824;7.134;2023-09-30T05:22:42;58.53;;;49.33;;
20067;SDS011;10194;50.824;7.134;2023-09-30T05:25:14;58.27;;;49.40;;
20067;SDS011;10194;50.824;7.134;2023-09-30T05:27:41;57.97;;;49.17;;
20067;SDS011;10194;50.824;7.134;2023-09-30T05:30:08;57.60;;;48.80;;
20067;SDS011;10194;50.824;7.134;2023-09-30T05:32:35;57.80;;;49.00;;
20067;SDS011;10194;50.824;7.134;2023-09-30T05:35:04;57.17;;;48.53;;
20067;SDS011;10194;50.824;7.134;2023-09-30T05:37:38;58.33;;;49.30;;
20067;SDS011;10194;50.824;7.134;2023-09-30T05:40:07;57.60;;;48.93;;
20067;SDS011;10194;50.824;7.134;2023-09-30T05:42:46;57.40;;;48.67;;
20067;SDS011;10194;50.824;7.134;2023-09-30T05:45:23;57.67;;;48.73;;
20067;SDS011;10194;50.824;7.134;2023-09-30T05:47:51;58.33;;;49.30;;
20067;SDS011;10194;50.824;7.134;2023-09-30T05:50:19;58.40;;;49.43;;
20067;SDS011;10194;50.824;7.134;2023-09-30T05:52:50;57.90;;;49.20;;
20067;SDS011;10194;50.824;7.134;2023-09-30T05:55:17;59.20;;;49.80;;
20067;SDS011;10194;50.824;7.134;2023-09-30T05:57:49;57.77;;;48.93;;
20067;SDS011;10194;50.824;7.134;2023-09-30T06:00:17;57.87;;;49.00;;
20067;SDS011;10194;50.824;7.134;2023-09-30T06:02:51;58.27;;;49.33;;
20067;SDS011;10194;50.824;7.134;2023-09-30T06:05:17;57.83;;;48.73;;
20067;SDS011;10194;50.824;7.134;2023-09-30T06:07:51;58.77;;;49.53;;
20067;SDS011;10194;50.824;7.134;2023-09-30T06:10:19;59.03;;;49.60;;
20067;SDS011;10194;50.824;7.134;2023-09-30T06:12:46;59.80;;;50.07;;
20067;SDS011;10194;50.824;7.134;2023-09-30T06:15:13;58.57;;;49.53;;
20067;SDS011;10194;50.824;7.134;2023-09-30T06:17:41;58.20;;;49.27;;
20067;SDS011;10194;50.824;7.134;2023-09-30T06:20:07;58.90;;;49.60;;
20067;SDS011;10194;50.824;7.134;2023-09-30T06:22:41;58.67;;;49.53;;
20067;SDS011;10194;50.824;7.134;2023-09-30T06:25:10;59.53;;;50.00;;
20067;SDS011;10194;50.824;7.134;2023-09-30T06:27:37;58.60;;;49.47;;
20067;SDS011;10194;50.824;7.134;2023-09-30T06:30:03;59.07;;;49.80;;
20067;SDS011;10194;50.824;7.134;2023-09-30T06:32:30;58.73;;;49.60;;
20067;SDS011;10194;50.824;7.134;2023-09-30T06:34:56;59.33;;;50.07;;
20067;SDS011;10194;50.824;7.134;2023-09-30T06:37:22;58.83;;;49.67;;
20067;SDS011;10194;50.824;7.134;2023-09-30T06:39:47;59.63;;;50.23;;
20067;SDS011;10194;50.824;7.134;2023-09-30T06:42:13;59.00;;;49.80;;
20067;SDS011;10194;50.824;7.134;2023-09-30T06:44:39;59.23;;;50.00;;
20067;SDS011;10194;50.824;7.134;2023-09-30T06:47:05;59.80;;;50.40;;
20067;SDS011;10194;50.824;7.134;2023-09-30T06:49:33;59.97;;;50.37;;
20067;SDS011;10194;50.824;7.134;2023-09-30T06:51:59;59.40;;;50.17;;
20067;SDS011;10194;50.824;7.134;2023-09-30T06:54:25;63.13;;;52.10;;
20067;SDS011;10194;50.824;7.134;2023-09-30T06:56:51;59.23;;;49.97;;
20067;SDS011;10194;50.824;7.134;2023-09-30T06:59:17;59.17;;;50.03;;
20067;SDS011;10194;50.824;7.134;2023-09-30T07:01:43;59.50;;;50.17;;
20067;SDS011;10194;50.824;7.134;2023-09-30T07:04:09;60.53;;;50.70;;
20067;SDS011;10194;50.824;7.134;2023-09-30T07:06:36;60.20;;;50.67;;
20067;SDS011;10194;50.824;7.134;2023-09-30T07:09:02;62.50;;;51.67;;
20067;SDS011;10194;50.824;7.134;2023-09-30T07:11:29;60.47;;;50.83;;
20067;SDS011;10194;50.824;7.134;2023-09-30T07:13:58;60.00;;;50.67;;
20067;SDS011;10194;50.824;7.134;2023-09-30T07:16:24;60.80;;;51.17;;
20067;SDS011;10194;50.824;7.134;2023-09-30T07:18:50;61.97;;;51.90;;
20067;SDS011;10194;50.824;7.134;2023-09-30T07:21:16;60.93;;;51.27;;
20067;SDS011;10194;50.824;7.134;2023-09-30T07:23:42;61.30;;;51.37;;
20067;SDS011;10194;50.824;7.134;2023-09-30T07:26:08;61.97;;;51.90;;
20067;SDS011;10194;50.824;7.134;2023-09-30T07:28:33;61.63;;;51.90;;
20067;SDS011;10194;50.824;7.134;2023-09-30T07:30:59;62.37;;;52.33;;
20067;SDS011;10194;50.824;7.134;2023-09-30T07:33:25;62.87;;;52.67;;
20067;SDS011;10194;50.824;7.134;2023-09-30T07:35:51;65.63;;;53.60;;
20067;SDS011;10194;50.824;7.134;2023-09-30T07:38:17;62.07;;;52.37;;
20067;SDS011;10194;50.824;7.134;2023-09-30T07:40:43;65.33;;;53.83;;
20067;SDS011;10194;50.824;7.134;2023-09-30T07:43:09;62.27;;;52.43;;
20067;SDS011;10194;50.824;7.134;2023-09-30T07:45:35;62.77;;;52.93;;
20067;SDS011;10194;50.824;7.134;2023-09-30T07:48:01;63.47;;;53.20;;
20067;SDS011;10194;50.824;7.134;2023-09-30T07:50:30;62.43;;;52.60;;
20067;SDS011;10194;50.824;7.134;2023-09-30T07:52:56;62.23;;;52.53;;
20067;SDS011;10194;50.824;7.134;2023-09-30T07:55:23;62.60;;;52.83;;
20067;SDS011;10194;50.824;7.134;2023-09-30T07:57:49;66.77;;;54.50;;
20067;SDS011;10194;50.824;7.134;2023-09-30T08:00:15;62.77;;;52.97;;
20067;SDS011;10194;50.824;7.134;2023-09-30T08:02:42;66.07;;;54.17;;
20067;SDS011;10194;50.824;7.134;2023-09-30T08:05:09;62.80;;;53.00;;
20067;SDS011;10194;50.824;7.134;2023-09-30T08:07:35;63.47;;;53.47;;
20067;SDS011;10194;50.824;7.134;2023-09-30T08:10:02;65.00;;;53.73;;
20067;SDS011;10194;50.824;7.134;2023-09-30T08:12:30;65.10;;;53.97;;
20067;SDS011;10194;50.824;7.134;2023-09-30T08:14:55;66.07;;;54.20;;
20067;SDS011;10194;50.824;7.134;2023-09-30T08:17:21;67.97;;;55.20;;
20067;SDS011;10194;50.824;7.134;2023-09-30T08:19:47;64.00;;;53.60;;
20067;SDS011;10194;50.824;7.134;2023-09-30T08:22:13;68.10;;;55.20;;
20067;SDS011;10194;50.824;7.134;2023-09-30T08:24:39;67.57;;;55.37;;
20067;SDS011;10194;50.824;7.134;2023-09-30T08:27:05;69.13;;;55.80;;
20067;SDS011;10194;50.824;7.134;2023-09-30T08:29:34;67.87;;;55.43;;
20067;SDS011;10194;50.824;7.134;2023-09-30T08:32:03;63.43;;;53.63;;
20067;SDS011;10194;50.824;7.134;2023-09-30T08:34:29;70.43;;;56.43;;
20067;SDS011;10194;50.824;7.134;2023-09-30T08:36:55;63.50;;;53.67;;
20067;SDS011;10194;50.824;7.134;2023-09-30T08:39:22;66.63;;;55.03;;
20067;SDS011;10194;50.824;7.134;2023-09-30T08:41:49;69.27;;;56.03;;
20067;SDS011;10194;50.824;7.134;2023-09-30T08:44:15;63.77;;;53.93;;
20067;SDS011;10194;50.824;7.134;2023-09-30T08:46:42;63.77;;;54.03;;
20067;SDS011;10194;50.824;7.134;2023-09-30T08:49:09;68.07;;;55.90;;
20067;SDS011;10194;50.824;7.134;2023-09-30T08:51:39;71.10;;;57.10;;
20067;SDS011;10194;50.824;7.134;2023-09-30T08:54:05;68.07;;;55.87;;
20067;SDS011;10194;50.824;7.134;2023-09-30T08:56:31;66.43;;;55.17;;
20067;SDS011;10194;50.824;7.134;2023-09-30T08:59:01;66.67;;;55.10;;
20067;SDS011;10194;50.824;7.134;2023-09-30T09:01:28;65.30;;;54.47;;
20067;SDS011;10194;50.824;7.134;2023-09-30T09:03:56;64.70;;;54.43;;
20067;SDS011;10194;50.824;7.134;2023-09-30T09:06:22;67.70;;;55.43;;
20067;SDS011;10194;50.824;7.134;2023-09-30T09:08:50;65.50;;;54.47;;
20067;SDS011;10194;50.824;7.134;2023-09-30T09:11:17;68.47;;;55.80;;
20067;SDS011;10194;50.824;7.134;2023-09-30T09:13:50;64.10;;;54.03;;
20067;SDS011;10194;50.824;7.134;2023-09-30T09:16:21;64.20;;;54.03;;
20067;SDS011;10194;50.824;7.134;2023-09-30T09:18:48;68.80;;;56.27;;
20067;SDS011;10194;50.824;7.134;2023-09-30T09:21:15;69.50;;;56.47;;
20067;SDS011;10194;50.824;7.134;2023-09-30T09:23:43;64.20;;;54.17;;
20067;SDS011;10194;50.824;7.134;2023-09-30T09:26:32;68.90;;;56.33;;
20067;SDS011;10194;50.824;7.134;2023-09-30T09:29:00;67.10;;;55.40;;
20067;SDS011;10194;50.824;7.134;2023-09-30T09:31:29;66.77;;;55.30;;
20067;SDS011;10194;50.824;7.134;2023-09-30T09:34:00;64.87;;;54.53;;
20067;SDS011;10194;50.824;7.134;2023-09-30T09:36:41;65.97;;;54.87;;
20067;SDS011;10194;50.824;7.134;2023-09-30T09:39:08;71.50;;;57.27;;
20067;SDS011;10194;50.824;7.134;2023-09-30T09:41:59;64.80;;;54.47;;
20067;SDS011;10194;50.824;7.134;2023-09-30T09:44:26;68.70;;;56.27;;
20067;SDS011;10194;50.824;7.134;2023-09-30T09:46:52;70.37;;;56.77;;
20067;SDS011;10194;50.824;7.134;2023-09-30T09:49:18;72.33;;;57.60;;
20067;SDS011;10194;50.824;7.134;2023-09-30T09:51:46;69.10;;;56.47;;
20067;SDS011;10194;50.824;7.134;2023-09-30T09:54:14;68.07;;;55.77;;
20067;SDS011;10194;50.824;7.134;2023-09-30T09:56:41;70.67;;;57.07;;
20067;SDS011;10194;50.824;7.134;2023-09-30T09:59:11;68.37;;;56.17;;
20067;SDS011;10194;50.824;7.134;2023-09-30T10:01:38;70.60;;;57.30;;
20067;SDS011;10194;50.824;7.134;2023-09-30T10:04:07;65.03;;;54.77;;
20067;SDS011;10194;50.824;7.134;2023-09-30T10:06:33;68.67;;;56.67;;
20067;SDS011;10194;50.824;7.134;2023-09-30T10:09:07;69.47;;;56.90;;
20067;SDS011;10194;50.824;7.134;2023-09-30T10:11:35;69.77;;;57.20;;
20067;SDS011;10194;50.824;7.134;2023-09-30T10:14:04;69.43;;;56.77;;
20067;SDS011;10194;50.824;7.134;2023-09-30T10:21:39;72.23;;;58.57;;
20067;SDS011;10194;50.824;7.134;2023-09-30T10:24:53;69.20;;;56.93;;
20067;SDS011;10194;50.824;7.134;2023-09-30T10:29:47;69.53;;;57.03;;
20067;SDS011;10194;50.824;7.134;2023-09-30T10:32:14;69.13;;;57.67;;
20067;SDS011;10194;50.824;7.134;2023-09-30T10:34:49;70.37;;;57.77;;
20067;SDS011;10194;50.824;7.134;2023-09-30T10:37:21;71.77;;;58.93;;
20067;SDS011;10194;50.824;7.134;2023-09-30T10:39:55;71.60;;;58.77;;
20067;SDS011;10194;50.824;7.134;2023-09-30T10:51:16;72.80;;;59.40;;
20067;SDS011;10194;50.824;7.134;2023-09-30T10:53:47;69.93;;;57.87;;
20067;SDS011;10194;50.824;7.134;2023-09-30T10:56:21;70.10;;;58.17;;
20067;SDS011;10194;50.824;7.134;2023-09-30T10:58:49;71.90;;;59.33;;
20067;SDS011;10194;50.824;7.134;2023-09-30T11:01:17;72.23;;;59.50;;
20067;SDS011;10194;50.824;7.134;2023-09-30T11:03:46;71.37;;;58.80;;
20067;SDS011;10194;50.824;7.134;2023-09-30T11:06:14;68.50;;;57.53;;
20067;SDS011;10194;50.824;7.134;2023-09-30T11:08:55;71.63;;;59.20;;
20067;SDS011;10194;50.824;7.134;2023-09-30T11:11:32;74.27;;;61.13;;
20067;SDS011;10194;50.824;7.134;2023-09-30T11:14:26;72.33;;;59.50;;
20067;SDS011;10194;50.824;7.134;2023-09-30T11:16:55;70.20;;;58.20;;
20067;SDS011;10194;50.824;7.134;2023-09-30T11:19:24;71.40;;;58.80;;
20067;SDS011;10194;50.824;7.134;2023-09-30T11:21:51;70.10;;;58.67;;
20067;SDS011;10194;50.824;7.134;2023-09-30T11:24:18;70.77;;;58.93;;
20067;SDS011;10194;50.824;7.134;2023-09-30T11:26:44;72.50;;;60.00;;
20067;SDS011;10194;50.824;7.134;2023-09-30T11:29:14;71.27;;;58.77;;
20067;SDS011;10194;50.824;7.134;2023-09-30T11:31:45;71.20;;;58.80;;
20067;SDS011;10194;50.824;7.134;2023-09-30T11:34:16;71.70;;;58.97;;
20067;SDS011;10194;50.824;7.134;2023-09-30T11:36:47;72.27;;;59.33;;
20067;SDS011;10194;50.824;7.134;2023-09-30T11:39:22;71.63;;;59.10;;
20067;SDS011;10194;50.824;7.134;2023-09-30T11:41:49;72.40;;;59.80;;
20067;SDS011;10194;50.824;7.134;2023-09-30T11:44:15;76.17;;;61.90;;
20067;SDS011;10194;50.824;7.134;2023-09-30T11:52:11;73.53;;;59.87;;
20067;SDS011;10194;50.824;7.134;2023-09-30T11:54:41;71.67;;;58.87;;
20067;SDS011;10194;50.824;7.134;2023-09-30T11:57:12;71.53;;;59.10;;
20067;SDS011;10194;50.824;7.134;2023-09-30T11:59:44;71.30;;;58.27;;
20067;SDS011;10194;50.824;7.134;2023-09-30T12:02:12;72.83;;;59.33;;
20067;SDS011;10194;50.824;7.134;2023-09-30T12:04:45;71.17;;;58.20;;
20067;SDS011;10194;50.824;7.134;2023-09-30T12:07:14;71.63;;;58.47;;
20067;SDS011;10194;50.824;7.134;2023-09-30T12:09:40;71.77;;;58.43;;
20067;SDS011;10194;50.824;7.134;2023-09-30T12:12:06;72.67;;;58.87;;
20067;SDS011;10194;50.824;7.134;2023-09-30T12:14:34;73.47;;;59.90;;
20067;SDS011;10194;50.824;7.134;2023-09-30T12:17:00;72.83;;;59.40;;
20067;SDS011;10194;50.824;7.134;2023-09-30T12:19:26;73.13;;;60.03;;
20067;SDS011;10194;50.824;7.134;2023-09-30T12:21:52;73.67;;;60.43;;
20067;SDS011;10194;50.824;7.134;2023-09-30T12:24:18;72.33;;;59.23;;
20067;SDS011;10194;50.824;7.134;2023-09-30T12:26:46;73.27;;;60.23;;
20067;SDS011;10194;50.824;7.134;2023-09-30T12:29:19;73.00;;;59.87;;
20067;SDS011;10194;50.824;7.134;2023-09-30T12:31:53;72.93;;;59.73;;
20067;SDS011;10194;50.824;7.134;2023-09-30T12:34:19;73.63;;;60.17;;
20067;SDS011;10194;50.824;7.134;2023-09-30T12:36:45;73.30;;;60.00;;
20067;SDS011;10194;50.824;7.134;2023-09-30T12:39:10;73.83;;;59.93;;
20067;SDS011;10194;50.824;7.134;2023-09-30T12:41:42;72.40;;;59.40;;
20067;SDS011;10194;50.824;7.134;2023-09-30T12:44:09;73.40;;;60.00;;
20067;SDS011;10194;50.824;7.134;2023-09-30T12:46:36;73.10;;;60.00;;
20067;SDS011;10194;50.824;7.134;2023-09-30T12:49:04;73.27;;;59.73;;
20067;SDS011;10194;50.824;7.134;2023-09-30T12:51:32;72.40;;;59.20;;
20067;SDS011;10194;50.824;7.134;2023-09-30T12:53:59;72.20;;;58.90;;
20067;SDS011;10194;50.824;7.134;2023-09-30T12:56:25;72.73;;;59.37;;
20067;SDS011;10194;50.824;7.134;2023-09-30T12:58:54;72.17;;;58.60;;
20067;SDS011;10194;50.824;7.134;2023-09-30T13:01:21;72.67;;;59.37;;
20067;SDS011;10194;50.824;7.134;2023-09-30T13:03:47;72.30;;;58.83;;
20067;SDS011;10194;50.824;7.134;2023-09-30T13:06:14;72.50;;;59.20;;
20067;SDS011;10194;50.824;7.134;2023-09-30T13:08:43;72.30;;;58.97;;
20067;SDS011;10194;50.824;7.134;2023-09-30T13:11:09;72.60;;;59.17;;
20067;SDS011;10194;50.824;7.134;2023-09-30T13:13:36;73.77;;;60.40;;
20067;SDS011;10194;50.824;7.134;2023-09-30T13:16:02;72.37;;;59.03;;
20067;SDS011;10194;50.824;7.134;2023-09-30T13:18:35;73.67;;;60.23;;
20067;SDS011;10194;50.824;7.134;2023-09-30T13:21:01;72.70;;;59.53;;
20067;SDS011;10194;50.824;7.134;2023-09-30T13:23:30;71.63;;;58.60;;
20067;SDS011;10194;50.824;7.134;2023-09-30T13:25:56;72.90;;;59.60;;
20067;SDS011;10194;50.824;7.134;2023-09-30T13:28:22;73.67;;;60.10;;
20067;SDS011;10194;50.824;7.134;2023-09-30T13:30:48;73.67;;;60.67;;
20067;SDS011;10194;50.824;7.134;2023-09-30T13:33:14;73.70;;;60.50;;
20067;SDS011;10194;50.824;7.134;2023-09-30T13:35:39;73.47;;;60.23;;
20067;SDS011;10194;50.824;7.134;2023-09-30T13:38:05;77.20;;;62.53;;
20067;SDS011;10194;50.824;7.134;2023-09-30T13:40:31;74.43;;;60.60;;
20067;SDS011;10194;50.824;7.134;2023-09-30T13:42:57;73.80;;;60.60;;
20067;SDS011;10194;50.824;7.134;2023-09-30T13:45:23;74.57;;;61.40;;
20067;SDS011;10194;50.824;7.134;2023-09-30T13:47:50;75.90;;;62.77;;
20067;SDS011;10194;50.824;7.134;2023-09-30T13:50:15;76.00;;;63.03;;
20067;SDS011;10194;50.824;7.134;2023-09-30T13:52:41;74.67;;;61.80;;
20067;SDS011;10194;50.824;7.134;2023-09-30T13:55:07;73.77;;;60.87;;
20067;SDS011;10194;50.824;7.134;2023-09-30T13:57:34;75.30;;;62.60;;
20067;SDS011;10194;50.824;7.134;2023-09-30T14:00:00;74.63;;;61.93;;
20067;SDS011;10194;50.824;7.134;2023-09-30T14:02:29;75.33;;;62.60;;
20067;SDS011;10194;50.824;7.134;2023-09-30T14:04:54;75.83;;;63.33;;
20067;SDS011;10194;50.824;7.134;2023-09-30T14:07:20;76.60;;;64.57;;
20067;SDS011;10194;50.824;7.134;2023-09-30T14:09:47;74.83;;;62.30;;
20067;SDS011;10194;50.824;7.134;2023-09-30T14:12:12;74.50;;;62.00;;
20067;SDS011;10194;50.824;7.134;2023-09-30T14:14:38;74.60;;;61.47;;
20067;SDS011;10194;50.824;7.134;2023-09-30T14:17:04;73.47;;;60.20;;
20067;SDS011;10194;50.824;7.134;2023-09-30T14:19:34;74.20;;;60.57;;
20067;SDS011;10194;50.824;7.134;2023-09-30T14:22:01;73.13;;;59.93;;
20067;SDS011;10194;50.824;7.134;2023-09-30T14:24:27;73.33;;;60.27;;
20067;SDS011;10194;50.824;7.134;2023-09-30T14:26:52;73.43;;;60.13;;
20067;SDS011;10194;50.824;7.134;2023-09-30T14:29:20;73.57;;;60.33;;
20067;SDS011;10194;50.824;7.134;2023-09-30T14:31:46;74.37;;;60.87;;
20067;SDS011;10194;50.824;7.134;2023-09-30T14:34:12;73.97;;;60.80;;
20067;SDS011;10194;50.824;7.134;2023-09-30T14:36:40;74.50;;;61.07;;
20067;SDS011;10194;50.824;7.134;2023-09-30T14:39:05;74.00;;;60.60;;
20067;SDS011;10194;50.824;7.134;2023-09-30T14:41:31;73.83;;;60.63;;
20067;SDS011;10194;50.824;7.134;2023-09-30T14:43:59;74.33;;;61.07;;
20067;SDS011;10194;50.824;7.134;2023-09-30T14:46:25;73.60;;;60.60;;